Weather at Brown'S Airport

Public forecast

Using degrees Fahrenheit for public forecast. Weather courtesy of forecast.io.

Closest aviation weather report (METAR) to Brown'S Airport

Closest report is Searcy Municipal Airport, 8.9 nm (16.6 km) ESE. Retrieved 2021/06/20 07:56 UTC (34 minutes ago):

KSRC 200756Z AUTO 22003KT 10SM CLR 23/22 A2986 RMK AO2 SLP107 T02280222 PNO

Closest aviation forecast (TAF) to Brown'S Airport

Closest forecast is Little Rock Air Force Base, 25.9 nm (48.0 km) SSW. Retrieved 2021/06/20 07:06 UTC (1 hour ago):

TAF KLRF 200700Z 2007/2113 18006KT 9999 FEW060 SCT200 QNH2980INS BECMG 2014/2015 23012G20KT 9999 FEW090 SCT250 QNH2979INS BECMG 2100/2101 20009KT 9999 FEW070 QNH2967INS BECMG 2106/2107 22009KT 9999 FEW080 QNH2968INS TX38/2020Z TN22/2011Z